createdAt,value
2023-02-23T00:01:02.168Z,9.87
2023-02-23T00:04:06.962Z,10.03
2023-02-23T00:07:10.304Z,9.83
2023-02-23T00:10:18.287Z,9.37
2023-02-23T00:13:20.935Z,8.47
2023-02-23T00:16:26.063Z,9.30
2023-02-23T00:19:33.163Z,9.73
2023-02-23T00:22:35.951Z,9.57
2023-02-23T00:25:39.839Z,9.33
2023-02-23T00:28:44.415Z,8.93
2023-02-23T00:31:47.736Z,9.33
2023-02-23T00:34:52.350Z,9.93
2023-02-23T00:37:55.047Z,10.00
2023-02-23T00:40:57.663Z,9.37
2023-02-23T00:44:01.912Z,10.17
2023-02-23T00:47:04.655Z,10.17
2023-02-23T00:50:12.876Z,9.87
2023-02-23T00:53:16.394Z,9.73
2023-02-23T00:56:19.004Z,9.93
2023-02-23T00:59:21.742Z,9.50
2023-02-23T01:02:25.140Z,9.70
2023-02-23T01:05:29.204Z,9.83
2023-02-23T01:08:32.324Z,9.90
2023-02-23T01:11:35.253Z,8.90
2023-02-23T01:14:38.309Z,9.93
2023-02-23T01:17:41.163Z,9.57
2023-02-23T01:20:46.323Z,9.50
2023-02-23T01:23:49.654Z,9.80
2023-02-23T01:26:52.370Z,9.37
2023-02-23T01:29:55.438Z,10.10
2023-02-23T01:32:58.159Z,10.03
2023-02-23T01:36:02.255Z,10.33
2023-02-23T01:39:07.675Z,9.63
2023-02-23T01:42:13.818Z,8.90
2023-02-23T01:45:24.799Z,9.10
2023-02-23T01:48:32.606Z,9.57
2023-02-23T01:51:42.965Z,8.90
2023-02-23T01:54:50.544Z,9.97
2023-02-23T01:57:57.160Z,9.23
2023-02-23T02:01:02.549Z,9.50
2023-02-23T02:04:06.578Z,10.00
2023-02-23T02:07:11.495Z,10.27
2023-02-23T02:10:33.808Z,9.47
2023-02-23T02:13:37.828Z,10.10
2023-02-23T02:17:03.517Z,9.63
2023-02-23T02:20:52.376Z,10.27
2023-02-23T02:24:22.007Z,9.40
2023-02-23T02:27:43.406Z,9.93
2023-02-23T02:31:30.203Z,9.83
2023-02-23T02:35:10.124Z,9.60
2023-02-23T02:38:25.311Z,9.37
2023-02-23T02:41:36.931Z,9.30
2023-02-23T02:44:49.548Z,10.07
2023-02-23T02:47:59.386Z,8.53
2023-02-23T02:51:10.035Z,9.90
2023-02-23T02:54:22.119Z,10.20
2023-02-23T02:57:28.740Z,10.47
2023-02-23T03:00:54.991Z,9.80
2023-02-23T03:04:17.443Z,9.87
2023-02-23T03:07:45.287Z,9.07
2023-02-23T03:11:17.320Z,9.90
2023-02-23T03:14:47.319Z,11.00
2023-02-23T03:18:15.637Z,10.67
2023-02-23T03:21:44.473Z,9.60
2023-02-23T03:25:13.422Z,10.67
2023-02-23T03:28:37.736Z,10.87
2023-02-23T03:32:06.796Z,10.33
2023-02-23T03:35:34.149Z,10.50
2023-02-23T03:38:59.620Z,9.37
2023-02-23T03:42:23.858Z,10.30
2023-02-23T03:45:47.876Z,10.37
2023-02-23T03:49:12.046Z,10.43
2023-02-23T03:52:35.730Z,10.73
2023-02-23T03:56:01.143Z,10.00
2023-02-23T03:59:24.300Z,10.00
2023-02-23T04:02:47.915Z,11.30
2023-02-23T04:06:11.601Z,10.23
2023-02-23T04:09:32.457Z,10.50
2023-02-23T04:12:56.169Z,11.47
2023-02-23T04:16:03.644Z,10.97
2023-02-23T04:19:07.822Z,11.17
2023-02-23T04:22:10.499Z,9.93
2023-02-23T04:25:17.234Z,10.57
2023-02-23T04:28:20.562Z,10.97
2023-02-23T04:31:25.131Z,10.10
2023-02-23T04:34:29.539Z,10.17
2023-02-23T04:37:32.142Z,11.43
2023-02-23T04:40:35.308Z,11.20
2023-02-23T04:43:38.099Z,10.10
2023-02-23T04:46:40.778Z,10.50
2023-02-23T04:49:45.508Z,10.47
2023-02-23T04:52:48.707Z,11.23
2023-02-23T04:55:51.703Z,11.07
2023-02-23T04:58:54.373Z,9.33
2023-02-23T05:01:57.028Z,10.60
2023-02-23T05:05:01.061Z,10.90
2023-02-23T05:08:03.766Z,10.77
2023-02-23T05:11:07.618Z,11.53
2023-02-23T05:14:10.677Z,11.23
2023-02-23T05:17:13.532Z,10.37
2023-02-23T05:20:17.552Z,10.53
2023-02-23T05:23:20.317Z,10.47
2023-02-23T05:26:23.049Z,11.03
2023-02-23T05:29:25.774Z,10.63
2023-02-23T05:32:28.575Z,10.80
2023-02-23T05:35:32.899Z,10.57
2023-02-23T05:38:36.155Z,10.47
2023-02-23T05:41:39.238Z,10.37
2023-02-23T05:44:41.857Z,9.77
2023-02-23T05:47:44.468Z,9.33
2023-02-23T05:50:48.464Z,10.40
2023-02-23T05:53:51.267Z,10.33
2023-02-23T05:56:54.077Z,11.47
2023-02-23T05:59:56.728Z,10.07
2023-02-23T06:02:59.396Z,10.57
2023-02-23T06:06:03.536Z,11.60
2023-02-23T06:09:06.204Z,11.27
2023-02-23T06:12:10.113Z,10.47
2023-02-23T06:15:12.883Z,11.57
2023-02-23T06:18:15.468Z,11.10
2023-02-23T06:21:19.733Z,10.70
2023-02-23T06:24:23.693Z,11.07
2023-02-23T06:27:26.858Z,9.93
2023-02-23T06:30:29.635Z,9.97
2023-02-23T06:33:32.261Z,12.10
2023-02-23T06:36:36.532Z,11.10
2023-02-23T06:39:39.142Z,9.77
2023-02-23T06:42:41.826Z,10.23
2023-02-23T06:45:44.476Z,9.53
2023-02-23T06:48:47.336Z,10.67
2023-02-23T06:51:51.653Z,10.93
2023-02-23T06:54:54.406Z,10.07
2023-02-23T06:57:57.376Z,10.10
2023-02-23T07:01:00.386Z,9.70
2023-02-23T07:04:03.179Z,9.30
2023-02-23T07:07:07.480Z,9.57
2023-02-23T07:10:11.803Z,8.70
2023-02-23T07:13:14.512Z,8.03
2023-02-23T07:16:17.219Z,8.73
2023-02-23T07:19:19.879Z,7.57
2023-02-23T07:22:25.305Z,9.03
2023-02-23T07:25:27.966Z,9.67
2023-02-23T07:28:30.611Z,8.40
2023-02-23T07:31:33.347Z,8.67
2023-02-23T07:34:37.062Z,8.10
2023-02-23T07:37:42.079Z,8.97
2023-02-23T07:40:44.700Z,9.13
2023-02-23T07:43:47.465Z,9.37
2023-02-23T07:46:50.569Z,11.07
2023-02-23T07:49:53.190Z,9.83
2023-02-23T07:52:57.233Z,8.20
2023-02-23T07:56:00.739Z,8.43
2023-02-23T07:59:03.631Z,9.07
2023-02-23T08:02:07.014Z,9.47
2023-02-23T08:05:10.029Z,8.50
2023-02-23T08:08:14.126Z,8.07
2023-02-23T08:11:17.211Z,8.43
2023-02-23T08:14:23.569Z,8.47
2023-02-23T08:17:27.437Z,8.10
2023-02-23T08:20:30.807Z,8.47
2023-02-23T08:23:35.579Z,9.47
2023-02-23T08:26:38.737Z,9.07
2023-02-23T08:29:41.417Z,9.67
2023-02-23T08:32:44.017Z,8.87
2023-02-23T08:35:46.854Z,10.23
2023-02-23T08:38:51.152Z,8.83
2023-02-23T08:41:55.605Z,8.63
2023-02-23T08:44:59.163Z,9.87
2023-02-23T08:48:01.806Z,9.20
2023-02-23T08:51:04.590Z,7.67
2023-02-23T08:54:14.313Z,7.87
2023-02-23T08:57:17.600Z,7.70
2023-02-23T09:00:21.584Z,7.47
2023-02-23T09:03:25.845Z,7.77
2023-02-23T09:06:28.938Z,8.00
2023-02-23T09:09:34.135Z,7.73
2023-02-23T09:12:36.769Z,7.37
2023-02-23T09:15:40.201Z,7.13
2023-02-23T09:18:43.266Z,7.30
2023-02-23T09:21:45.968Z,7.17
2023-02-23T09:24:50.026Z,7.23
2023-02-23T09:27:53.914Z,7.33
2023-02-23T09:30:56.568Z,6.20
2023-02-23T09:34:00.286Z,6.57
2023-02-23T09:37:03.550Z,6.47
2023-02-23T09:40:09.895Z,6.33
2023-02-23T09:43:16.313Z,6.27
2023-02-23T09:46:29.458Z,5.93
2023-02-23T09:49:38.349Z,5.90
2023-02-23T09:52:44.968Z,5.28
2023-02-23T09:55:51.372Z,5.75
2023-02-23T09:58:54.384Z,5.05
2023-02-23T10:02:05.551Z,4.55
2023-02-23T10:05:11.775Z,4.78
2023-02-23T10:08:26.004Z,4.68
2023-02-23T10:11:39.839Z,4.72
2023-02-23T10:14:59.419Z,4.43
2023-02-23T10:18:13.154Z,4.32
2023-02-23T10:21:19.860Z,4.18
2023-02-23T10:24:25.538Z,3.83
2023-02-23T10:27:39.156Z,4.03
2023-02-23T10:30:42.269Z,4.32
2023-02-23T10:33:44.911Z,3.80
2023-02-23T10:36:53.394Z,3.40
2023-02-23T10:39:56.164Z,4.50
2023-02-23T10:43:02.408Z,4.28
2023-02-23T10:46:07.028Z,3.78
2023-02-23T10:49:18.982Z,4.20
2023-02-23T10:52:31.090Z,3.63
2023-02-23T10:55:34.442Z,3.92
2023-02-23T10:58:46.387Z,3.55
2023-02-23T11:02:01.541Z,3.47
2023-02-23T11:05:07.210Z,3.50
2023-02-23T11:08:20.657Z,3.00
2023-02-23T11:11:28.706Z,3.67
2023-02-23T11:14:33.169Z,2.25
2023-02-23T11:17:38.754Z,2.92
2023-02-23T11:20:44.301Z,2.85
2023-02-23T11:23:47.104Z,2.58
2023-02-23T11:26:52.170Z,2.65
2023-02-23T11:29:59.587Z,2.60
2023-02-23T11:33:11.089Z,2.38
2023-02-23T11:36:26.512Z,2.55
2023-02-23T11:39:29.261Z,2.10
2023-02-23T11:42:33.919Z,1.80
2023-02-23T11:45:47.473Z,1.70
2023-02-23T11:48:53.965Z,1.90
2023-02-23T11:51:59.374Z,2.22
2023-02-23T11:55:06.555Z,1.60
2023-02-23T11:58:24.138Z,1.92
2023-02-23T12:01:41.787Z,1.65
2023-02-23T12:04:47.545Z,1.60
2023-02-23T12:07:56.789Z,1.70
2023-02-23T12:11:03.803Z,1.83
2023-02-23T12:14:13.523Z,1.85
2023-02-23T12:17:23.018Z,1.70
2023-02-23T12:20:27.865Z,2.17
2023-02-23T12:23:34.846Z,1.92
2023-02-23T12:26:45.789Z,3.30
2023-02-23T12:30:03.114Z,3.47
2023-02-23T12:33:13.096Z,3.75
2023-02-23T12:36:26.040Z,3.25
2023-02-23T12:39:33.078Z,2.80
2023-02-23T12:42:41.506Z,3.22
2023-02-23T12:45:47.391Z,3.20
2023-02-23T12:49:01.458Z,3.10
2023-02-23T12:52:11.461Z,2.60
2023-02-23T12:55:15.372Z,2.75
2023-02-23T12:58:25.441Z,2.50
2023-02-23T13:01:32.885Z,2.90
2023-02-23T13:04:53.559Z,2.10
2023-02-23T13:08:13.468Z,2.35
2023-02-23T13:11:28.693Z,2.30
2023-02-23T13:14:39.088Z,2.00
2023-02-23T13:17:48.018Z,2.10
2023-02-23T13:20:56.630Z,2.40
2023-02-23T13:24:05.145Z,2.40
2023-02-23T13:27:16.328Z,2.47
2023-02-23T13:30:20.728Z,2.70
2023-02-23T13:33:41.870Z,2.45
2023-02-23T13:36:50.394Z,2.42
2023-02-23T13:40:09.397Z,2.20
2023-02-23T13:43:22.985Z,1.92
2023-02-23T13:46:37.215Z,2.20
2023-02-23T13:49:47.483Z,2.38
2023-02-23T13:52:58.343Z,2.33
2023-02-23T13:56:06.683Z,2.45
2023-02-23T13:59:16.336Z,2.38
2023-02-23T14:02:33.139Z,2.13
2023-02-23T14:05:44.421Z,2.53
2023-02-23T14:08:54.464Z,1.83
2023-02-23T14:12:05.331Z,2.00
2023-02-23T14:15:41.271Z,1.80
2023-02-23T14:19:07.037Z,2.08
2023-02-23T14:22:15.392Z,1.98
2023-02-23T14:25:48.381Z,1.90
2023-02-23T14:29:17.854Z,1.95
2023-02-23T14:32:32.334Z,2.25
2023-02-23T14:35:44.453Z,2.15
2023-02-23T14:38:48.475Z,2.10
2023-02-23T14:41:55.511Z,1.73
2023-02-23T14:45:03.936Z,2.45
2023-02-23T14:48:09.791Z,2.85
2023-02-23T14:51:17.839Z,1.67
2023-02-23T14:54:26.453Z,2.38
2023-02-23T14:57:30.417Z,2.65
2023-02-23T15:00:42.198Z,2.20
2023-02-23T15:04:09.576Z,2.72
2023-02-23T15:07:18.756Z,2.88
2023-02-23T15:10:27.013Z,3.15
2023-02-23T15:13:33.953Z,4.30
2023-02-23T15:16:37.840Z,3.08
2023-02-23T15:19:40.994Z,3.35
2023-02-23T15:22:47.142Z,3.25
2023-02-23T15:25:51.214Z,3.72
2023-02-23T15:28:56.271Z,3.35
2023-02-23T15:32:15.322Z,3.67
2023-02-23T15:35:18.296Z,3.40
2023-02-23T15:38:42.251Z,3.13
2023-02-23T15:41:48.715Z,3.28
2023-02-23T15:45:04.780Z,3.42
2023-02-23T15:48:12.149Z,3.10
2023-02-23T15:51:26.128Z,3.35
2023-02-23T15:54:32.236Z,3.17
2023-02-23T15:57:48.507Z,3.22
2023-02-23T16:00:57.587Z,3.45
2023-02-23T16:04:03.538Z,3.47
2023-02-23T16:07:17.822Z,3.25
2023-02-23T16:10:23.329Z,3.30
2023-02-23T16:13:27.267Z,2.95
2023-02-23T16:16:34.965Z,3.10
2023-02-23T16:19:40.900Z,3.30
2023-02-23T16:22:46.203Z,3.17
2023-02-23T16:25:54.197Z,2.88
2023-02-23T16:28:59.647Z,3.38
2023-02-23T16:32:04.192Z,3.67
2023-02-23T16:35:16.860Z,3.38
2023-02-23T16:38:25.645Z,3.83
2023-02-23T16:41:31.004Z,3.50
2023-02-23T16:44:42.896Z,3.90
2023-02-23T16:47:48.819Z,4.10
2023-02-23T16:50:51.751Z,3.97
2023-02-23T16:53:54.454Z,4.25
2023-02-23T16:56:57.359Z,4.00
2023-02-23T17:00:00.552Z,4.00
2023-02-23T17:03:06.681Z,4.13
2023-02-23T17:06:10.023Z,3.92
2023-02-23T17:09:13.481Z,4.10
2023-02-23T17:12:21.717Z,4.40
2023-02-23T17:15:27.282Z,7.43
2023-02-23T17:18:33.510Z,4.53
2023-02-23T17:21:36.113Z,3.83
2023-02-23T17:24:38.864Z,3.92
2023-02-23T17:27:41.488Z,3.30
2023-02-23T17:30:44.815Z,3.22
2023-02-23T17:33:49.602Z,3.92
2023-02-23T17:36:52.319Z,4.57
2023-02-23T17:39:55.003Z,4.70
2023-02-23T17:43:00.166Z,4.22
2023-02-23T17:46:03.025Z,4.53
2023-02-23T17:49:07.197Z,4.22
2023-02-23T17:52:09.816Z,5.18
2023-02-23T17:55:12.757Z,4.60
2023-02-23T17:58:15.592Z,6.00
2023-02-23T18:01:19.821Z,4.95
2023-02-23T18:04:24.138Z,5.18
2023-02-23T18:07:26.891Z,4.65
2023-02-23T18:10:29.516Z,4.45
2023-02-23T18:13:33.712Z,3.33
2023-02-23T18:16:36.493Z,3.10
2023-02-23T18:19:40.824Z,3.65
2023-02-23T18:22:43.639Z,3.53
2023-02-23T18:25:46.716Z,2.80
2023-02-23T18:28:51.080Z,3.30
2023-02-23T18:31:53.930Z,3.35
2023-02-23T18:34:58.015Z,3.03
2023-02-23T18:38:00.712Z,2.75
2023-02-23T18:41:03.628Z,2.97
2023-02-23T18:44:08.391Z,3.13
2023-02-23T18:47:11.585Z,3.50
2023-02-23T18:50:18.855Z,3.80
2023-02-23T18:53:21.478Z,3.50
2023-02-23T18:56:28.065Z,3.60
2023-02-23T18:59:30.738Z,3.57
2023-02-23T19:02:33.349Z,3.40
2023-02-23T19:05:37.815Z,3.57
2023-02-23T19:08:41.956Z,3.83
2023-02-23T19:11:44.635Z,4.03
2023-02-23T19:14:51.122Z,4.17
2023-02-23T19:17:54.400Z,4.40
2023-02-23T19:20:58.489Z,4.53
2023-02-23T19:24:02.375Z,4.40
2023-02-23T19:27:05.144Z,4.73
2023-02-23T19:30:10.305Z,4.57
2023-02-23T19:33:14.227Z,4.57
2023-02-23T19:36:20.219Z,4.27
2023-02-23T19:39:22.851Z,5.37
2023-02-23T19:42:25.505Z,5.07
2023-02-23T19:45:28.159Z,4.73
2023-02-23T19:48:30.780Z,5.20
2023-02-23T19:51:34.833Z,4.80
2023-02-23T19:54:37.985Z,4.83
2023-02-23T19:57:40.796Z,4.83
2023-02-23T20:00:45.215Z,4.67
2023-02-23T20:03:55.094Z,5.40
2023-02-23T20:06:59.076Z,5.77
2023-02-23T20:10:05.352Z,5.43
2023-02-23T20:13:08.617Z,5.00
2023-02-23T20:16:13.572Z,5.18
2023-02-23T20:19:16.315Z,5.37
2023-02-23T20:22:20.348Z,5.17
2023-02-23T20:25:23.458Z,5.43
2023-02-23T20:28:26.119Z,5.53
2023-02-23T20:31:31.195Z,5.57
2023-02-23T20:34:35.637Z,5.37
2023-02-23T20:37:39.736Z,5.57
2023-02-23T20:40:42.631Z,5.10
2023-02-23T20:43:45.984Z,5.77
2023-02-23T20:46:49.056Z,5.43
2023-02-23T20:49:51.711Z,7.07
2023-02-23T20:52:55.952Z,6.70
2023-02-23T20:55:58.796Z,7.03
2023-02-23T20:59:02.291Z,6.20
2023-02-23T21:02:05.397Z,6.97
2023-02-23T21:05:12.223Z,7.57
2023-02-23T21:08:16.462Z,7.07
2023-02-23T21:11:20.525Z,8.33
2023-02-23T21:14:23.393Z,8.00
2023-02-23T21:17:26.203Z,7.67
2023-02-23T21:20:29.671Z,7.37
2023-02-23T21:23:33.688Z,7.10
2023-02-23T21:26:36.960Z,7.40
2023-02-23T21:29:40.512Z,6.30
2023-02-23T21:32:43.570Z,7.27
2023-02-23T21:35:46.221Z,6.40
2023-02-23T21:38:51.316Z,6.73
2023-02-23T21:41:53.929Z,7.03
2023-02-23T21:44:56.810Z,7.40
2023-02-23T21:47:59.435Z,7.57
2023-02-23T21:51:06.215Z,6.77
2023-02-23T21:54:10.347Z,7.60
2023-02-23T21:57:13.231Z,7.40
2023-02-23T22:00:18.949Z,7.90
2023-02-23T22:03:26.011Z,7.93
2023-02-23T22:06:31.350Z,7.43
2023-02-23T22:09:36.066Z,7.37
2023-02-23T22:12:38.684Z,6.63
2023-02-23T22:15:41.315Z,7.43
2023-02-23T22:18:44.398Z,8.13
2023-02-23T22:21:48.371Z,8.30
2023-02-23T22:24:52.336Z,8.73
2023-02-23T22:27:54.948Z,8.63
2023-02-23T22:30:57.993Z,8.57
2023-02-23T22:34:00.749Z,9.00
2023-02-23T22:37:03.502Z,8.77
2023-02-23T22:40:14.356Z,8.00
2023-02-23T22:43:17.033Z,9.47
2023-02-23T22:46:19.759Z,8.90
2023-02-23T22:49:22.388Z,8.70
2023-02-23T22:52:26.677Z,9.80
2023-02-23T22:55:31.153Z,9.20
2023-02-23T22:58:33.838Z,10.60
2023-02-23T23:01:38.410Z,9.50
2023-02-23T23:04:41.321Z,9.57
2023-02-23T23:07:46.773Z,9.03
2023-02-23T23:10:50.958Z,8.63
2023-02-23T23:13:57.619Z,8.67
2023-02-23T23:17:00.294Z,10.10
2023-02-23T23:20:10.614Z,8.73
2023-02-23T23:23:13.321Z,9.07
2023-02-23T23:26:20.112Z,9.03
2023-02-23T23:29:25.721Z,9.30
2023-02-23T23:32:29.934Z,8.77
2023-02-23T23:35:34.278Z,9.10
2023-02-23T23:38:38.520Z,10.47
2023-02-23T23:41:44.042Z,10.30
2023-02-23T23:44:46.721Z,10.07
2023-02-23T23:47:49.333Z,10.20
2023-02-23T23:50:51.970Z,8.83
2023-02-23T23:53:54.628Z,11.07
2023-02-23T23:57:01.238Z,10.33
